BISN16 CYTR-CYTR
Flight info
| Callsign | BISN16 |
|---|---|
| Flight time | 0h 47m |
| Altitude | 21000 |
| Route | UTR243025 DCT UTR215025 DCT UTR180020 DCT UTR120025 DCT UTR067025 |
| Aircraft | C17/H-SDE1E2FGHIJ5RTUWXY/LB1D1 |
Departure
| Time | 2026-05-06 21:39 |
|---|---|
| Airport | CFB Trenton (CYTR) |
Arrival
| Time | 2026-05-06 22:26 |
|---|---|
| Airport | CFB Trenton (CYTR) |
| Time | Latitude | Longitude | Altitude | Speed | Heading |
|---|---|---|---|---|---|
| 2026-05-06 20:44 | 44.11302 | -77.52851 | 276 ft | 0 kts | 164° |
| 2026-05-06 20:44 | 44.11303 | -77.52851 | 276 ft | 0 kts | 345° |
| 2026-05-06 21:30 | 44.11306 | -77.52852 | 276 ft | 3 kts | 345° |
| 2026-05-06 21:30 | 44.11342 | -77.52881 | 276 ft | 10 kts | 303° |
| 2026-05-06 21:31 | 44.11345 | -77.52895 | 276 ft | 10 kts | 283° |
| 2026-05-06 21:31 | 44.11328 | -77.53011 | 276 ft | 13 kts | 253° |
| 2026-05-06 21:31 | 44.11308 | -77.53031 | 276 ft | 6 kts | 154° |
| 2026-05-06 21:31 | 44.11337 | -77.52938 | 278 ft | 14 kts | 57° |
| 2026-05-06 21:32 | 44.11373 | -77.52821 | 276 ft | 11 kts | 55° |
| 2026-05-06 21:32 | 44.11508 | -77.52771 | 277 ft | 10 kts | 9° |
| 2026-05-06 21:32 | 44.11580 | -77.52755 | 277 ft | 11 kts | 9° |
| 2026-05-06 21:33 | 44.11652 | -77.52740 | 277 ft | 8 kts | 8° |
| 2026-05-06 21:33 | 44.11675 | -77.52735 | 278 ft | 0 kts | 8° |
| 2026-05-06 21:33 | 44.11676 | -77.52735 | 278 ft | 0 kts | 8° |
| 2026-05-06 21:33 | 44.11706 | -77.52729 | 278 ft | 10 kts | 8° |
| 2026-05-06 21:34 | 44.11783 | -77.52709 | 278 ft | 11 kts | 24° |
| 2026-05-06 21:34 | 44.11839 | -77.52634 | 278 ft | 12 kts | 50° |
| 2026-05-06 21:34 | 44.11905 | -77.52523 | 283 ft | 15 kts | 50° |
| 2026-05-06 21:34 | 44.11972 | -77.52409 | 285 ft | 15 kts | 51° |
| 2026-05-06 21:35 | 44.12038 | -77.52297 | 280 ft | 15 kts | 50° |
| 2026-05-06 21:35 | 44.12110 | -77.52172 | 281 ft | 17 kts | 52° |
| 2026-05-06 21:35 | 44.12185 | -77.52045 | 281 ft | 18 kts | 50° |
| 2026-05-06 21:35 | 44.12262 | -77.51915 | 281 ft | 17 kts | 50° |
| 2026-05-06 21:36 | 44.12336 | -77.51790 | 284 ft | 17 kts | 51° |
| 2026-05-06 21:36 | 44.12402 | -77.51672 | 283 ft | 14 kts | 60° |
| 2026-05-06 21:36 | 44.12421 | -77.51639 | 283 ft | 2 kts | 4° |
| 2026-05-06 21:36 | 44.12426 | -77.51643 | 286 ft | 2 kts | 308° |
| 2026-05-06 21:37 | 44.12422 | -77.51633 | 287 ft | 3 kts | 253° |
| 2026-05-06 21:37 | 44.12406 | -77.51675 | 289 ft | 0 kts | 231° |
| 2026-05-06 21:37 | 44.12317 | -77.51827 | 289 ft | 47 kts | 231° |
| 2026-05-06 21:38 | 44.12005 | -77.52357 | 280 ft | 92 kts | 230° |
| 2026-05-06 21:38 | 44.11530 | -77.53163 | 279 ft | 121 kts | 230° |
| 2026-05-06 21:38 | 44.10993 | -77.54089 | 564 ft | 111 kts | 231° |
| 2026-05-06 21:38 | 44.10487 | -77.54992 | 822 ft | 124 kts | 232° |
| 2026-05-06 21:39 | 44.09915 | -77.56026 | 847 ft | 161 kts | 232° |
| 2026-05-06 21:39 | 44.09096 | -77.57456 | 1614 ft | 202 kts | 232° |
| 2026-05-06 21:39 | 44.08162 | -77.59007 | 3142 ft | 218 kts | 231° |
| 2026-05-06 21:39 | 44.07143 | -77.60754 | 4502 ft | 243 kts | 234° |
| 2026-05-06 21:40 | 44.06112 | -77.62601 | 5992 ft | 249 kts | 233° |
| 2026-05-06 21:40 | 44.04879 | -77.64457 | 6264 ft | 262 kts | 224° |
| 2026-05-06 21:40 | 44.03464 | -77.65895 | 6221 ft | 254 kts | 213° |
| 2026-05-06 21:40 | 44.02111 | -77.67345 | 6471 ft | 233 kts | 230° |
| 2026-05-06 21:41 | 44.01049 | -77.68911 | 6901 ft | 222 kts | 226° |
| 2026-05-06 21:41 | 43.99866 | -77.70284 | 7072 ft | 214 kts | 229° |
| 2026-05-06 21:41 | 43.99027 | -77.71874 | 7460 ft | 199 kts | 239° |
| 2026-05-06 21:41 | 43.98245 | -77.73493 | 7453 ft | 202 kts | 236° |
| 2026-05-06 21:42 | 43.97473 | -77.75003 | 7801 ft | 190 kts | 238° |
| 2026-05-06 21:42 | 43.96669 | -77.76704 | 8269 ft | 236 kts | 238° |
| 2026-05-06 21:42 | 43.95711 | -77.78710 | 8775 ft | 251 kts | 237° |
| 2026-05-06 21:42 | 43.94736 | -77.80691 | 9191 ft | 249 kts | 237° |
| 2026-05-06 21:43 | 43.93747 | -77.82705 | 9618 ft | 253 kts | 237° |
| 2026-05-06 21:43 | 43.92768 | -77.84705 | 9992 ft | 252 kts | 237° |
| 2026-05-06 21:43 | 43.91787 | -77.86712 | 10395 ft | 255 kts | 237° |
| 2026-05-06 21:43 | 43.90786 | -77.88758 | 10763 ft | 255 kts | 237° |
| 2026-05-06 21:44 | 43.89792 | -77.90778 | 11125 ft | 254 kts | 237° |
| 2026-05-06 21:44 | 43.88741 | -77.92765 | 11491 ft | 259 kts | 227° |
| 2026-05-06 21:44 | 43.87202 | -77.94125 | 11866 ft | 266 kts | 209° |
| 2026-05-06 21:44 | 43.85403 | -77.94857 | 12259 ft | 273 kts | 195° |
| 2026-05-06 21:45 | 43.83451 | -77.94585 | 12600 ft | 299 kts | 165° |
| 2026-05-06 21:45 | 43.81723 | -77.92834 | 12973 ft | 319 kts | 139° |
| 2026-05-06 21:45 | 43.80372 | -77.90353 | 13388 ft | 326 kts | 131° |
| 2026-05-06 21:45 | 43.79128 | -77.87728 | 13750 ft | 330 kts | 129° |
| 2026-05-06 21:46 | 43.77985 | -77.84978 | 14342 ft | 334 kts | 122° |
| 2026-05-06 21:46 | 43.77116 | -77.81922 | 14952 ft | 347 kts | 115° |
| 2026-05-06 21:46 | 43.76460 | -77.78678 | 15551 ft | 351 kts | 109° |
| 2026-05-06 21:46 | 43.76156 | -77.75292 | 16158 ft | 364 kts | 90° |
| 2026-05-06 21:47 | 43.76749 | -77.71831 | 16849 ft | 376 kts | 71° |
| 2026-05-06 21:47 | 43.77724 | -77.68425 | 17552 ft | 382 kts | 69° |
| 2026-05-06 21:47 | 43.78784 | -77.65027 | 18221 ft | 387 kts | 68° |
| 2026-05-06 21:47 | 43.79846 | -77.61616 | 18801 ft | 394 kts | 69° |
| 2026-05-06 21:48 | 43.80897 | -77.58091 | 19341 ft | 398 kts | 69° |
| 2026-05-06 21:48 | 43.81949 | -77.54531 | 19693 ft | 398 kts | 68° |
| 2026-05-06 21:48 | 43.83008 | -77.51013 | 20044 ft | 395 kts | 68° |
| 2026-05-06 21:48 | 43.84070 | -77.47489 | 20462 ft | 399 kts | 68° |
| 2026-05-06 21:49 | 43.85139 | -77.43906 | 20897 ft | 402 kts | 68° |
| 2026-05-06 21:49 | 43.86221 | -77.40279 | 20998 ft | 409 kts | 68° |
| 2026-05-06 21:49 | 43.87307 | -77.36640 | 20998 ft | 405 kts | 68° |
| 2026-05-06 21:49 | 43.88361 | -77.33101 | 21005 ft | 401 kts | 68° |
| 2026-05-06 21:50 | 43.89426 | -77.29519 | 21003 ft | 403 kts | 68° |
| 2026-05-06 21:50 | 43.90496 | -77.25913 | 21025 ft | 404 kts | 69° |
| 2026-05-06 21:50 | 43.91582 | -77.22307 | 20898 ft | 406 kts | 67° |
| 2026-05-06 21:50 | 43.92772 | -77.18766 | 20933 ft | 401 kts | 64° |
| 2026-05-06 21:51 | 43.94057 | -77.15352 | 20954 ft | 398 kts | 61° |
| 2026-05-06 21:51 | 43.95447 | -77.12036 | 20966 ft | 395 kts | 58° |
| 2026-05-06 21:51 | 43.96970 | -77.08883 | 20964 ft | 390 kts | 46° |
| 2026-05-06 21:51 | 43.99069 | -77.06643 | 20971 ft | 373 kts | 17° |
| 2026-05-06 21:52 | 44.01496 | -77.05909 | 21020 ft | 346 kts | 348° |
| 2026-05-06 21:52 | 44.03810 | -77.06385 | 21023 ft | 332 kts | 339° |
| 2026-05-06 21:52 | 44.06076 | -77.07001 | 21017 ft | 332 kts | 341° |
| 2026-05-06 21:52 | 44.08391 | -77.07314 | 21011 ft | 338 kts | 350° |
| 2026-05-06 21:53 | 44.10724 | -77.07229 | 21013 ft | 339 kts | 354° |
| 2026-05-06 21:53 | 44.13078 | -77.07085 | 21004 ft | 336 kts | 352° |
| 2026-05-06 21:53 | 44.15404 | -77.07109 | 21001 ft | 332 kts | 349° |
| 2026-05-06 21:53 | 44.17711 | -77.07184 | 20997 ft | 331 kts | 350° |
| 2026-05-06 21:54 | 44.20014 | -77.07197 | 20997 ft | 330 kts | 351° |
| 2026-05-06 21:54 | 44.22305 | -77.07186 | 21003 ft | 328 kts | 351° |
| 2026-05-06 21:54 | 44.24558 | -77.07193 | 21164 ft | 326 kts | 351° |
| 2026-05-06 21:54 | 44.26920 | -77.07220 | 21564 ft | 358 kts | 351° |
| 2026-05-06 21:55 | 44.29507 | -77.07297 | 21479 ft | 374 kts | 351° |
| 2026-05-06 21:55 | 44.32090 | -77.07374 | 21366 ft | 370 kts | 351° |
| 2026-05-06 21:55 | 44.34658 | -77.07300 | 21330 ft | 368 kts | 354° |
| 2026-05-06 21:55 | 44.37196 | -77.07213 | 21330 ft | 371 kts | 352° |
| 2026-05-06 21:56 | 44.39792 | -77.07295 | 21324 ft | 367 kts | 344° |
| 2026-05-06 21:56 | 44.42094 | -77.08380 | 21326 ft | 336 kts | 316° |
| 2026-05-06 21:56 | 44.43629 | -77.10633 | 21345 ft | 312 kts | 289° |
| 2026-05-06 21:56 | 44.43906 | -77.13424 | 21336 ft | 290 kts | 246° |
| 2026-05-06 21:57 | 44.42498 | -77.15541 | 20009 ft | 318 kts | 214° |
| 2026-05-06 21:57 | 44.40438 | -77.17012 | 17971 ft | 342 kts | 211° |
| 2026-05-06 21:57 | 44.38407 | -77.18413 | 16159 ft | 297 kts | 211° |
| 2026-05-06 21:57 | 44.36541 | -77.19512 | 14032 ft | 279 kts | 207° |
| 2026-05-06 21:58 | 44.34864 | -77.20670 | 11996 ft | 260 kts | 220° |
| 2026-05-06 21:58 | 44.33398 | -77.21868 | 10463 ft | 228 kts | 212° |
| 2026-05-06 21:58 | 44.32105 | -77.22698 | 9575 ft | 183 kts | 212° |
| 2026-05-06 21:58 | 44.31018 | -77.23336 | 8648 ft | 162 kts | 211° |
| 2026-05-06 21:59 | 44.29861 | -77.24207 | 7720 ft | 214 kts | 219° |
| 2026-05-06 21:59 | 44.28560 | -77.25583 | 6862 ft | 251 kts | 221° |
| 2026-05-06 21:59 | 44.27268 | -77.27201 | 6248 ft | 247 kts | 227° |
| 2026-05-06 21:59 | 44.26115 | -77.28907 | 5994 ft | 240 kts | 231° |
| 2026-05-06 22:00 | 44.25009 | -77.30652 | 5880 ft | 240 kts | 231° |
| 2026-05-06 22:00 | 44.23895 | -77.32457 | 5457 ft | 251 kts | 231° |
| 2026-05-06 22:00 | 44.22757 | -77.34292 | 5028 ft | 246 kts | 231° |
| 2026-05-06 22:00 | 44.21757 | -77.35852 | 4470 ft | 197 kts | 230° |
| 2026-05-06 22:01 | 44.20803 | -77.37335 | 3752 ft | 211 kts | 230° |
| 2026-05-06 22:01 | 44.19779 | -77.38880 | 3269 ft | 224 kts | 231° |
| 2026-05-06 22:01 | 44.18717 | -77.40588 | 2954 ft | 231 kts | 233° |
| 2026-05-06 22:01 | 44.17851 | -77.42218 | 2727 ft | 196 kts | 237° |
| 2026-05-06 22:02 | 44.17055 | -77.43638 | 2402 ft | 174 kts | 233° |
| 2026-05-06 22:02 | 44.16354 | -77.44842 | 2061 ft | 148 kts | 234° |
| 2026-05-06 22:02 | 44.15748 | -77.45892 | 1810 ft | 132 kts | 234° |
| 2026-05-06 22:02 | 44.15173 | -77.46903 | 1467 ft | 137 kts | 234° |
| 2026-05-06 22:03 | 44.14578 | -77.47927 | 1253 ft | 132 kts | 231° |
| 2026-05-06 22:03 | 44.14034 | -77.48876 | 1008 ft | 119 kts | 233° |
| 2026-05-06 22:03 | 44.13519 | -77.49781 | 772 ft | 124 kts | 230° |
| 2026-05-06 22:03 | 44.12946 | -77.50761 | 509 ft | 126 kts | 229° |
| 2026-05-06 22:04 | 44.12419 | -77.51653 | 296 ft | 117 kts | 230° |
| 2026-05-06 22:04 | 44.11902 | -77.52530 | 288 ft | 129 kts | 231° |
| 2026-05-06 22:04 | 44.11320 | -77.53545 | 669 ft | 148 kts | 231° |
| 2026-05-06 22:04 | 44.10615 | -77.54739 | 1023 ft | 165 kts | 231° |
| 2026-05-06 22:05 | 44.09853 | -77.56002 | 1592 ft | 177 kts | 232° |
| 2026-05-06 22:05 | 44.08807 | -77.56955 | 1713 ft | 196 kts | 192° |
| 2026-05-06 22:05 | 44.07482 | -77.56285 | 1623 ft | 225 kts | 140° |
| 2026-05-06 22:05 | 44.06774 | -77.54242 | 1416 ft | 248 kts | 100° |
| 2026-05-06 22:06 | 44.06956 | -77.51915 | 1673 ft | 235 kts | 70° |
| 2026-05-06 22:06 | 44.07804 | -77.50104 | 1681 ft | 216 kts | 48° |
| 2026-05-06 22:06 | 44.08719 | -77.48554 | 1770 ft | 198 kts | 48° |
| 2026-05-06 22:06 | 44.09534 | -77.47077 | 1821 ft | 189 kts | 51° |
| 2026-05-06 22:07 | 44.10352 | -77.45528 | 1873 ft | 213 kts | 51° |
| 2026-05-06 22:07 | 44.11224 | -77.43836 | 2036 ft | 212 kts | 52° |
| 2026-05-06 22:07 | 44.11968 | -77.42371 | 2075 ft | 206 kts | 52° |
| 2026-05-06 22:07 | 44.12777 | -77.40759 | 2093 ft | 200 kts | 53° |
| 2026-05-06 22:08 | 44.13516 | -77.39127 | 2017 ft | 198 kts | 60° |
| 2026-05-06 22:08 | 44.13837 | -77.37387 | 1974 ft | 175 kts | 92° |
| 2026-05-06 22:08 | 44.13625 | -77.36366 | 1929 ft | 154 kts | 114° |
| 2026-05-06 22:08 | 44.13218 | -77.34907 | 2017 ft | 176 kts | 114° |
| 2026-05-06 22:09 | 44.12637 | -77.33410 | 2068 ft | 174 kts | 126° |
| 2026-05-06 22:09 | 44.11969 | -77.32064 | 1868 ft | 161 kts | 128° |
| 2026-05-06 22:09 | 44.11272 | -77.30943 | 1693 ft | 146 kts | 150° |
| 2026-05-06 22:09 | 44.10376 | -77.30706 | 1487 ft | 126 kts | 183° |
| 2026-05-06 22:10 | 44.09442 | -77.30654 | 1255 ft | 136 kts | 191° |
| 2026-05-06 22:10 | 44.08670 | -77.31295 | 945 ft | 131 kts | 225° |
| 2026-05-06 22:10 | 44.08055 | -77.32217 | 665 ft | 128 kts | 227° |
| 2026-05-06 22:10 | 44.07500 | -77.33057 | 400 ft | 112 kts | 227° |
| 2026-05-06 22:11 | 44.06942 | -77.33908 | 370 ft | 130 kts | 227° |
| 2026-05-06 22:11 | 44.06232 | -77.35001 | 901 ft | 178 kts | 227° |
| 2026-05-06 22:11 | 44.05207 | -77.36145 | 1559 ft | 204 kts | 201° |
| 2026-05-06 22:11 | 44.03895 | -77.35649 | 1540 ft | 204 kts | 135° |
| 2026-05-06 22:12 | 44.03735 | -77.33864 | 1486 ft | 195 kts | 63° |
| 2026-05-06 22:12 | 44.04595 | -77.32507 | 1477 ft | 185 kts | 42° |
| 2026-05-06 22:12 | 44.05507 | -77.31143 | 1552 ft | 199 kts | 45° |
| 2026-05-06 22:12 | 44.06380 | -77.29761 | 1714 ft | 174 kts | 46° |
| 2026-05-06 22:13 | 44.07111 | -77.28523 | 1789 ft | 158 kts | 47° |
| 2026-05-06 22:13 | 44.07921 | -77.27631 | 1788 ft | 149 kts | 6° |
| 2026-05-06 22:13 | 44.08902 | -77.27888 | 1572 ft | 143 kts | 332° |
| 2026-05-06 22:13 | 44.09753 | -77.28462 | 1498 ft | 130 kts | 330° |
| 2026-05-06 22:14 | 44.10362 | -77.29192 | 1504 ft | 122 kts | 265° |
| 2026-05-06 22:14 | 44.09631 | -77.30036 | 1191 ft | 151 kts | 215° |
| 2026-05-06 22:14 | 44.08890 | -77.31095 | 1053 ft | 153 kts | 226° |
| 2026-05-06 22:14 | 44.08150 | -77.32069 | 680 ft | 141 kts | 226° |
| 2026-05-06 22:15 | 44.07515 | -77.33032 | 400 ft | 125 kts | 226° |
| 2026-05-06 22:15 | 44.06902 | -77.33957 | 387 ft | 144 kts | 226° |
| 2026-05-06 22:15 | 44.06157 | -77.35095 | 956 ft | 171 kts | 227° |
| 2026-05-06 22:15 | 44.05456 | -77.36226 | 1718 ft | 139 kts | 233° |
| 2026-05-06 22:16 | 44.04779 | -77.37412 | 1983 ft | 184 kts | 236° |
| 2026-05-06 22:16 | 44.04087 | -77.39090 | 2178 ft | 207 kts | 257° |
| 2026-05-06 22:16 | 44.04036 | -77.40986 | 2124 ft | 185 kts | 271° |
| 2026-05-06 22:16 | 44.04175 | -77.42644 | 2031 ft | 169 kts | 289° |
| 2026-05-06 22:17 | 44.04887 | -77.43874 | 2011 ft | 162 kts | 319° |
| 2026-05-06 22:17 | 44.05789 | -77.44795 | 2137 ft | 157 kts | 318° |
| 2026-05-06 22:17 | 44.06656 | -77.45787 | 2232 ft | 167 kts | 316° |
| 2026-05-06 22:17 | 44.07480 | -77.46838 | 2237 ft | 155 kts | 313° |
| 2026-05-06 22:18 | 44.08232 | -77.47866 | 2023 ft | 144 kts | 311° |
| 2026-05-06 22:18 | 44.08927 | -77.48776 | 1942 ft | 132 kts | 315° |
| 2026-05-06 22:18 | 44.09811 | -77.48958 | 1612 ft | 142 kts | 16° |
| 2026-05-06 22:18 | 44.10523 | -77.48000 | 1410 ft | 143 kts | 55° |
| 2026-05-06 22:19 | 44.11110 | -77.46861 | 1407 ft | 157 kts | 34° |
| 2026-05-06 22:19 | 44.12211 | -77.46755 | 1190 ft | 159 kts | 338° |
| 2026-05-06 22:19 | 44.13179 | -77.47184 | 1235 ft | 130 kts | 333° |
| 2026-05-06 22:19 | 44.13807 | -77.47915 | 1103 ft | 126 kts | 291° |
| 2026-05-06 22:20 | 44.13819 | -77.49195 | 931 ft | 138 kts | 246° |
| 2026-05-06 22:20 | 44.13243 | -77.50260 | 640 ft | 136 kts | 230° |
| 2026-05-06 22:20 | 44.12683 | -77.51207 | 389 ft | 121 kts | 229° |
| 2026-05-06 22:20 | 44.12100 | -77.52162 | 371 ft | 148 kts | 231° |
| 2026-05-06 22:21 | 44.11405 | -77.53415 | 967 ft | 169 kts | 231° |
| 2026-05-06 22:21 | 44.10680 | -77.54649 | 1472 ft | 156 kts | 233° |
| 2026-05-06 22:21 | 44.09827 | -77.55684 | 1664 ft | 177 kts | 209° |
| 2026-05-06 22:21 | 44.08632 | -77.55397 | 1504 ft | 193 kts | 144° |
| 2026-05-06 22:22 | 44.08140 | -77.53698 | 1441 ft | 191 kts | 91° |
| 2026-05-06 22:22 | 44.08612 | -77.51977 | 1486 ft | 199 kts | 53° |
| 2026-05-06 22:22 | 44.09427 | -77.50380 | 1590 ft | 210 kts | 53° |
| 2026-05-06 22:22 | 44.10283 | -77.48681 | 1703 ft | 216 kts | 52° |
| 2026-05-06 22:23 | 44.11139 | -77.47039 | 1773 ft | 200 kts | 52° |
| 2026-05-06 22:23 | 44.11875 | -77.45536 | 1803 ft | 173 kts | 53° |
| 2026-05-06 22:23 | 44.12498 | -77.44233 | 1763 ft | 151 kts | 51° |
| 2026-05-06 22:23 | 44.13340 | -77.43778 | 1642 ft | 131 kts | 341° |
| 2026-05-06 22:24 | 44.14121 | -77.44460 | 1427 ft | 135 kts | 315° |
| 2026-05-06 22:24 | 44.14795 | -77.45283 | 1464 ft | 126 kts | 307° |
| 2026-05-06 22:24 | 44.15097 | -77.46373 | 1352 ft | 120 kts | 268° |
| 2026-05-06 22:24 | 44.14883 | -77.47450 | 1129 ft | 114 kts | 236° |
| 2026-05-06 22:25 | 44.14379 | -77.48311 | 876 ft | 116 kts | 229° |
| 2026-05-06 22:25 | 44.13858 | -77.49194 | 745 ft | 120 kts | 230° |
| 2026-05-06 22:25 | 44.13344 | -77.50087 | 616 ft | 115 kts | 230° |
| 2026-05-06 22:25 | 44.12850 | -77.50934 | 446 ft | 110 kts | 229° |
| 2026-05-06 22:26 | 44.12324 | -77.51821 | 300 ft | 129 kts | 230° |
| 2026-05-06 22:26 | 44.11861 | -77.52599 | 279 ft | 60 kts | 231° |
| 2026-05-06 22:26 | 44.11707 | -77.52861 | 277 ft | 29 kts | 231° |
| 2026-05-06 22:26 | 44.11615 | -77.53017 | 276 ft | 15 kts | 231° |
| 2026-05-06 22:27 | 44.11548 | -77.53131 | 276 ft | 18 kts | 231° |
| 2026-05-06 22:27 | 44.11452 | -77.53292 | 281 ft | 22 kts | 230° |
| 2026-05-06 22:27 | 44.11361 | -77.53448 | 275 ft | 19 kts | 228° |
| 2026-05-06 22:27 | 44.11278 | -77.53422 | 275 ft | 13 kts | 141° |
| 2026-05-06 22:28 | 44.11260 | -77.53328 | 275 ft | 10 kts | 75° |
| 2026-05-06 22:28 | 44.11281 | -77.53228 | 277 ft | 11 kts | 73° |
| 2026-05-06 22:28 | 44.11302 | -77.53129 | 276 ft | 10 kts | 74° |
| 2026-05-06 22:28 | 44.11291 | -77.53101 | 276 ft | 4 kts | 167° |
| 2026-05-06 22:29 | 44.11221 | -77.53064 | 275 ft | 12 kts | 122° |
| 2026-05-06 22:29 | 44.11221 | -77.52961 | 276 ft | 10 kts | 74° |
| 2026-05-06 22:29 | 44.11265 | -77.52924 | 278 ft | 7 kts | 352° |
| 2026-05-06 22:29 | 44.11301 | -77.52937 | 276 ft | 0 kts | 344° |
| 2026-05-06 22:30 | 44.11301 | -77.52938 | 276 ft | 0 kts | 344° |
| 2026-05-06 22:30 | 44.11298 | -77.52936 | 276 ft | 2 kts | 344° |
| 2026-05-06 22:30 | 44.11297 | -77.52936 | 276 ft | 0 kts | 344° |